Time;durP1;ratioP1;P1;durP2;ratioP2;P2;SDS_P1;SDS_P2;PMS_P1;PMS_P2;Temp;Humidity;BMP_temperature;BMP_pressure;BME280_temperature;BME280_humidity;BME280_pressure;Samples;Min_cycle;Max_cycle;Signal;HPM_P1;HPM_P2
2022/01/28 00:01:02;;;;;;;130.98;76.22;;;5.70;99.20;;;;;;5114712;28;20051;-71
2022/01/28 00:04:14;;;;;;;121.10;76.25;;;5.90;99.30;;;;;;5115109;28;20052;-71
2022/01/28 00:07:19;;;;;;;128.38;79.65;;;6.10;99.10;;;;;;5114833;28;20043;-70
2022/01/28 00:10:25;;;;;;;128.15;81.15;;;6.20;98.00;;;;;;5114399;28;20046;-70
2022/01/28 00:13:36;;;;;;;134.40;84.32;;;6.30;98.00;;;;;;5114395;28;20057;-71
2022/01/28 00:39:58;;;;;;;133.18;84.50;;;5.80;98.80;;;;;;5113871;28;20047;-71
2022/01/28 00:43:03;;;;;;;144.23;85.53;;;5.90;99.30;;;;;;5114103;28;20059;-71
2022/01/28 00:46:08;;;;;;;139.45;86.90;;;6.10;98.80;;;;;;5113843;28;20066;-71
2022/01/28 00:49:12;;;;;;;139.65;84.05;;;6.10;98.90;;;;;;5112908;28;20588;-71
2022/01/28 00:52:16;;;;;;;136.88;85.30;;;6.20;98.70;;;;;;5113674;28;20052;-71
2022/01/28 00:55:20;;;;;;;135.80;80.57;;;6.30;98.50;;;;;;5113914;28;20050;-72
2022/01/28 00:58:25;;;;;;;126.00;77.38;;;6.30;98.00;;;;;;5113344;28;20050;-72
2022/01/28 01:01:29;;;;;;;120.57;75.55;;;6.10;98.40;;;;;;5113589;28;20047;-71
2022/01/28 01:04:33;;;;;;;112.28;68.80;;;6.00;99.10;;;;;;5113542;28;20058;-72
2022/01/28 01:07:38;;;;;;;112.70;67.53;;;6.10;99.30;;;;;;5113423;28;20046;-72
2022/01/28 01:10:42;;;;;;;102.00;62.58;;;6.10;98.60;;;;;;5113070;28;20046;-72
2022/01/28 01:13:48;;;;;;;94.70;59.28;;;6.20;99.10;;;;;;5112456;28;20047;-71
2022/01/28 01:17:18;;;;;;;88.90;57.05;;;6.30;98.90;;;;;;5113528;28;20058;-72
2022/01/28 01:23:32;;;;;;;89.22;56.20;;;6.50;98.10;;;;;;5113167;28;20042;-71
2022/01/28 01:26:40;;;;;;;95.22;55.70;;;6.50;98.10;;;;;;5112088;28;20117;-72
2022/01/28 01:29:46;;;;;;;93.57;54.90;;;6.50;98.10;;;;;;5112896;28;20046;-72
2022/01/28 01:32:50;;;;;;;95.20;55.05;;;6.40;98.20;;;;;;5112841;28;20058;-72
2022/01/28 01:35:54;;;;;;;87.68;52.85;;;6.40;98.30;;;;;;5112773;28;20043;-72
2022/01/28 01:38:58;;;;;;;87.70;52.13;;;6.50;98.40;;;;;;5112871;28;20051;-72
2022/01/28 01:42:16;;;;;;;93.10;53.45;;;6.50;98.30;;;;;;5112971;28;20062;-72
2022/01/28 01:52:15;;;;;;;96.13;55.70;;;6.50;98.50;;;;;;5111455;28;20055;-71
2022/01/28 01:55:20;;;;;;;87.60;54.78;;;6.60;98.50;;;;;;5112380;28;20046;-71
2022/01/28 01:58:30;;;;;;;104.95;62.88;;;6.70;98.40;;;;;;5112377;28;20074;-71
2022/01/28 02:01:34;;;;;;;107.15;66.65;;;6.60;98.10;;;;;;5112195;28;20047;-71
2022/01/28 02:04:39;;;;;;;110.82;72.93;;;6.60;98.10;;;;;;5112441;28;20046;-70
2022/01/28 02:07:45;;;;;;;110.90;71.57;;;6.60;98.50;;;;;;5112443;28;20536;-70
2022/01/28 02:10:49;;;;;;;128.13;78.63;;;6.60;98.10;;;;;;5112304;28;20043;-71
2022/01/28 02:13:53;;;;;;;123.90;78.35;;;6.50;97.90;;;;;;5111828;28;20054;-71
2022/01/28 02:16:58;;;;;;;126.45;78.57;;;6.40;98.90;;;;;;5112193;28;20038;-71
2022/01/28 02:20:02;;;;;;;136.90;86.80;;;6.60;99.00;;;;;;5111752;28;20039;-71
2022/01/28 02:23:07;;;;;;;128.98;83.20;;;6.60;98.80;;;;;;5112138;28;20046;-71
2022/01/28 02:26:14;;;;;;;136.40;83.72;;;6.60;98.60;;;;;;5111648;28;20047;-71
2022/01/28 02:29:27;;;;;;;132.30;85.35;;;6.50;98.50;;;;;;5112031;28;20047;-70
2022/01/28 02:32:31;;;;;;;130.15;79.15;;;6.40;98.40;;;;;;5111591;28;20457;-71
2022/01/28 02:35:37;;;;;;;130.88;78.15;;;6.30;99.00;;;;;;5111679;28;20398;-71
2022/01/28 02:38:42;;;;;;;138.70;84.50;;;6.30;99.30;;;;;;5111533;28;20043;-70
2022/01/28 02:41:49;;;;;;;131.25;84.28;;;5.80;99.20;;;;;;5111700;28;20043;-71
2022/01/28 02:44:55;;;;;;;130.07;83.35;;;6.10;99.60;;;;;;5111554;28;20066;-71
2022/01/28 02:48:03;;;;;;;132.52;83.35;;;6.20;99.90;;;;;;5111763;28;20058;-71
2022/01/28 02:51:16;;;;;;;128.75;81.80;;;6.20;99.70;;;;;;5111429;28;20042;-71
2022/01/28 02:54:20;;;;;;;129.50;82.00;;;6.30;99.90;;;;;;5111788;28;20050;-71
2022/01/28 02:57:26;;;;;;;125.53;81.88;;;6.30;99.40;;;;;;5111770;28;20039;-71
2022/01/28 03:00:30;;;;;;;125.20;81.53;;;6.20;99.50;;;;;;5111023;28;20047;-71
2022/01/28 03:03:34;;;;;;;122.72;78.65;;;6.20;99.60;;;;;;5111460;28;20033;-71
2022/01/28 03:06:38;;;;;;;126.22;81.35;;;6.20;99.20;;;;;;5111287;28;20054;-71
2022/01/28 03:10:23;;;;;;;128.85;83.40;;;6.20;98.50;;;;;;5111535;28;20058;-71
2022/01/28 03:13:29;;;;;;;124.88;80.13;;;6.00;98.80;;;;;;5111441;28;20054;-71
2022/01/28 03:16:37;;;;;;;122.38;77.55;;;5.90;99.80;;;;;;5111644;28;20596;-71
2022/01/28 03:19:46;;;;;;;116.70;75.55;;;6.10;99.90;;;;;;5111459;28;20051;-71
2022/01/28 03:22:50;;;;;;;113.85;74.55;;;6.30;99.70;;;;;;5111314;28;20043;-71
2022/01/28 03:25:54;;;;;;;114.45;71.93;;;6.20;99.40;;;;;;5111512;28;20439;-71
2022/01/28 03:28:59;;;;;;;110.88;70.47;;;6.30;99.80;;;;;;5111389;28;20051;-71
2022/01/28 03:32:03;;;;;;;114.72;70.82;;;6.50;99.90;;;;;;5110950;28;20510;-71
2022/01/28 03:35:09;;;;;;;109.43;69.63;;;6.60;99.70;;;;;;5110991;28;20046;-71
2022/01/28 03:38:13;;;;;;;118.30;73.13;;;6.50;99.70;;;;;;5111110;28;20047;-71
2022/01/28 03:41:17;;;;;;;115.07;72.70;;;6.60;99.90;;;;;;5111043;28;20055;-71
2022/01/28 03:44:21;;;;;;;119.25;75.82;;;6.70;99.50;;;;;;5111749;28;20383;-71
2022/01/28 03:47:25;;;;;;;117.50;76.18;;;6.70;99.70;;;;;;5111056;28;20054;-71
2022/01/28 03:50:32;;;;;;;117.78;75.78;;;6.70;99.40;;;;;;5110928;28;20050;-71
2022/01/28 03:53:37;;;;;;;116.00;77.22;;;6.60;99.40;;;;;;5110904;28;20410;-71
2022/01/28 03:56:41;;;;;;;119.55;74.60;;;6.60;99.70;;;;;;5111261;28;20047;-71
2022/01/28 03:59:45;;;;;;;115.05;76.60;;;6.50;99.80;;;;;;5111016;28;20383;-71
2022/01/28 04:02:57;;;;;;;118.40;76.18;;;6.60;99.90;;;;;;5110820;28;20066;-71
2022/01/28 04:12:33;;;;;;;112.40;72.40;;;6.60;99.90;;;;;;5112609;28;20059;-71
2022/01/28 04:16:04;;;;;;;110.93;71.78;;;6.60;99.90;;;;;;5114422;28;20054;-71
2022/01/28 04:19:08;;;;;;;108.72;69.60;;;6.70;99.90;;;;;;5113293;28;20042;-71
2022/01/28 04:22:12;;;;;;;111.90;74.13;;;6.80;99.90;;;;;;5114169;28;20041;-71
2022/01/28 04:25:17;;;;;;;112.38;71.53;;;6.70;99.90;;;;;;5114288;28;20502;-71
2022/01/28 04:28:20;;;;;;;107.75;68.35;;;6.80;99.90;;;;;;5114323;28;20046;-71
2022/01/28 04:31:24;;;;;;;105.55;68.85;;;6.90;99.90;;;;;;5114088;28;20039;-71
2022/01/28 04:34:29;;;;;;;97.93;66.20;;;7.00;99.90;;;;;;5114351;28;20510;-71
2022/01/28 04:41:02;;;;;;;95.65;62.97;;;7.00;99.90;;;;;;5114302;28;20050;-71
2022/01/28 04:44:17;;;;;;;103.22;65.53;;;7.10;99.90;;;;;;5114194;28;20046;-71
2022/01/28 04:50:56;;;;;;;107.45;68.28;;;7.10;99.90;;;;;;5113648;28;20070;-71
2022/01/28 04:54:24;;;;;;;99.30;66.38;;;7.10;99.90;;;;;;5113662;28;20065;-71
2022/01/28 05:01:29;;;;;;;101.43;66.95;;;7.10;99.80;;;;;;5072212;28;20044;-71
2022/01/28 05:08:18;;;;;;;108.22;65.00;;;7.20;99.80;;;;;;5113467;28;20054;-71
2022/01/28 05:12:00;;;;;;;104.75;65.63;;;7.20;99.60;;;;;;5113687;28;20059;-71
2022/01/28 05:28:00;;;;;;;103.45;63.42;;;7.20;99.80;;;;;;5112907;28;20064;-71
2022/01/28 05:31:04;;;;;;;102.10;64.47;;;7.20;99.90;;;;;;5112817;28;20050;-72
2022/01/28 05:34:09;;;;;;;96.00;60.97;;;7.30;99.90;;;;;;5112821;28;20050;-71
2022/01/28 05:37:13;;;;;;;96.30;59.40;;;7.40;99.90;;;;;;5112829;28;20494;-71
2022/01/28 05:40:17;;;;;;;98.78;57.83;;;7.40;99.90;;;;;;5112639;28;20055;-71
2022/01/28 05:43:21;;;;;;;92.78;57.33;;;7.40;99.90;;;;;;5112911;28;20042;-71
2022/01/28 05:46:28;;;;;;;94.78;59.90;;;7.40;99.90;;;;;;5112289;28;20042;-71
2022/01/28 05:49:32;;;;;;;103.35;61.60;;;7.40;99.90;;;;;;5111523;28;20046;-71
2022/01/28 05:52:36;;;;;;;97.70;61.88;;;7.50;99.90;;;;;;5112631;28;20440;-71
2022/01/28 05:55:41;;;;;;;91.82;59.65;;;7.40;99.90;;;;;;5112433;28;20047;-70
2022/01/28 05:58:45;;;;;;;93.78;58.65;;;7.40;99.90;;;;;;5112606;28;20490;-70
2022/01/28 06:01:49;;;;;;;92.50;59.03;;;7.30;99.90;;;;;;5112630;28;20415;-73
2022/01/28 06:04:53;;;;;;;86.57;56.33;;;7.30;99.90;;;;;;5112647;28;20142;-73
2022/01/28 06:07:58;;;;;;;91.03;54.80;;;7.40;99.90;;;;;;5112256;28;20026;-73
2022/01/28 06:11:02;;;;;;;86.78;58.05;;;7.40;99.90;;;;;;5112295;28;20050;-70
2022/01/28 06:14:07;;;;;;;92.22;58.65;;;7.50;99.90;;;;;;5111959;28;20067;-70
2022/01/28 06:17:11;;;;;;;89.70;60.33;;;7.50;99.90;;;;;;5112374;28;20047;-70
2022/01/28 06:20:19;;;;;;;101.53;61.85;;;7.60;99.90;;;;;;5111734;28;20067;-70
2022/01/28 06:23:23;;;;;;;102.15;63.13;;;7.60;99.90;;;;;;5111228;28;20047;-70
2022/01/28 06:26:27;;;;;;;98.50;64.07;;;7.60;99.90;;;;;;5111791;28;20062;-70
2022/01/28 06:29:31;;;;;;;100.43;64.53;;;7.60;99.90;;;;;;5111790;28;20042;-70
2022/01/28 06:32:35;;;;;;;102.20;64.72;;;7.70;99.90;;;;;;5111934;28;20090;-70
2022/01/28 06:35:42;;;;;;;105.43;66.95;;;7.70;99.90;;;;;;5111154;28;20058;-70
2022/01/28 06:38:47;;;;;;;113.97;68.72;;;7.70;99.90;;;;;;5111470;28;20181;-70
2022/01/28 06:41:51;;;;;;;114.03;72.55;;;7.60;99.90;;;;;;5111726;28;20114;-70
2022/01/28 06:44:55;;;;;;;195.68;113.75;;;7.50;99.90;;;;;;5111684;28;20042;-70
2022/01/28 06:47:59;;;;;;;224.90;128.93;;;7.50;99.90;;;;;;5111345;28;20056;-70
2022/01/28 06:51:03;;;;;;;186.32;118.30;;;7.60;99.90;;;;;;5111430;28;20054;-70
2022/01/28 06:54:07;;;;;;;157.75;94.63;;;7.60;99.90;;;;;;5111284;28;20054;-70
2022/01/28 06:57:11;;;;;;;136.80;84.60;;;7.60;99.90;;;;;;5111487;28;20623;-71
2022/01/28 07:00:15;;;;;;;155.13;90.28;;;7.60;99.90;;;;;;5110927;28;20051;-70
2022/01/28 07:03:20;;;;;;;154.27;90.45;;;7.70;99.90;;;;;;5111040;28;20046;-71
2022/01/28 07:06:24;;;;;;;150.95;86.30;;;7.70;99.90;;;;;;5111307;28;20051;-71
2022/01/28 07:09:28;;;;;;;117.22;69.32;;;7.70;99.90;;;;;;5111103;28;20039;-71
2022/01/28 07:12:32;;;;;;;119.32;69.65;;;7.80;99.90;;;;;;5111283;28;20533;-70
2022/01/28 07:15:36;;;;;;;119.68;69.32;;;7.80;99.90;;;;;;5111067;28;20038;-71
2022/01/28 07:18:40;;;;;;;105.78;63.53;;;7.80;99.90;;;;;;5110950;28;20046;-71
2022/01/28 07:21:43;;;;;;;122.07;68.80;;;7.80;99.90;;;;;;5111112;28;20387;-70
2022/01/28 07:24:48;;;;;;;112.28;65.60;;;7.90;99.90;;;;;;5110946;28;20403;-71
2022/01/28 07:27:52;;;;;;;111.40;63.35;;;7.90;99.90;;;;;;5110854;28;20643;-73
2022/01/28 07:30:56;;;;;;;118.93;78.28;;;8.00;99.90;;;;;;5110056;28;20039;-73
2022/01/28 07:34:00;;;;;;;113.50;72.47;;;8.00;99.90;;;;;;5110664;28;20050;-74
2022/01/28 07:37:04;;;;;;;108.95;68.70;;;8.00;99.90;;;;;;5111098;28;20040;-77
2022/01/28 07:40:09;;;;;;;113.03;68.75;;;8.10;99.90;;;;;;5111093;28;20051;-71
2022/01/28 07:43:13;;;;;;;133.57;70.20;;;8.20;99.90;;;;;;5110806;28;20054;-71
2022/01/28 07:46:18;;;;;;;98.28;64.43;;;8.20;99.90;;;;;;5110996;28;20502;-69
2022/01/28 07:49:41;;;;;;;142.77;68.63;;;8.30;99.90;;;;;;5114534;28;20050;-71
2022/01/28 07:52:46;;;;;;;128.05;74.38;;;8.30;99.90;;;;;;5114601;28;20034;-70
2022/01/28 07:55:50;;;;;;;200.45;107.60;;;8.40;99.90;;;;;;5114996;28;20046;-75
2022/01/28 08:03:47;;;;;;;185.88;102.72;;;8.60;99.90;;;;;;5119368;28;20046;-75
2022/01/28 08:07:13;;;;;;;148.90;90.15;;;8.60;99.90;;;;;;5114715;28;20047;-77
2022/01/28 08:10:36;;;;;;;163.90;86.43;;;8.70;99.90;;;;;;5114357;28;20070;-75
2022/01/28 08:13:41;;;;;;;142.10;84.97;;;8.80;99.90;;;;;;5113977;28;20047;-75
2022/01/28 08:16:45;;;;;;;137.60;80.00;;;8.90;99.90;;;;;;5112674;28;20083;-76
2022/01/28 08:19:49;;;;;;;131.95;79.50;;;9.10;99.90;;;;;;5112431;28;20034;-75
2022/01/28 08:22:57;;;;;;;140.07;79.88;;;9.30;99.90;;;;;;5111881;28;20046;-76
2022/01/28 08:26:03;;;;;;;197.40;104.60;;;9.40;99.90;;;;;;5113756;28;20043;-74
2022/01/28 08:29:07;;;;;;;260.05;127.72;;;9.40;99.90;;;;;;5113685;28;20473;-82
2022/01/28 08:32:11;;;;;;;279.38;132.23;;;9.50;99.90;;;;;;5111540;28;20434;-77
2022/01/28 08:35:17;;;;;;;256.92;124.57;;;9.60;99.90;;;;;;5110823;28;20054;-78
2022/01/28 08:38:26;;;;;;;241.38;122.10;;;9.70;99.90;;;;;;5112466;28;20039;-78
2022/01/28 08:41:32;;;;;;;205.52;103.40;;;9.80;99.90;;;;;;5112856;28;20042;-78
2022/01/28 08:44:37;;;;;;;193.95;100.18;;;10.20;99.90;;;;;;5113433;28;20055;-74
2022/01/28 08:47:40;;;;;;;160.80;88.03;;;10.50;99.90;;;;;;5112574;28;20509;-74
2022/01/28 08:50:45;;;;;;;133.85;72.43;;;10.90;99.90;;;;;;5113493;28;20074;-71
2022/01/28 08:53:49;;;;;;;107.50;61.20;;;11.10;99.30;;;;;;5113337;28;20066;-73
2022/01/28 08:56:53;;;;;;;92.53;55.53;;;11.20;98.80;;;;;;5113469;28;20189;-74
2022/01/28 08:59:57;;;;;;;93.15;55.00;;;11.30;99.50;;;;;;5113304;28;20619;-73
2022/01/28 09:03:01;;;;;;;63.17;37.65;;;11.40;99.90;;;;;;5113003;28;20051;-72
2022/01/28 09:06:05;;;;;;;35.42;25.50;;;11.50;99.90;;;;;;5112706;28;20043;-75
2022/01/28 09:09:09;;;;;;;33.70;22.08;;;11.40;98.60;;;;;;5112259;28;20046;-73
2022/01/28 09:15:24;;;;;;;26.85;19.55;;;11.40;97.30;;;;;;5112908;28;20062;-73
2022/01/28 09:18:28;;;;;;;30.75;19.13;;;11.30;96.80;;;;;;5112603;28;20047;-73
2022/01/28 09:21:32;;;;;;;30.75;19.10;;;11.30;96.40;;;;;;5112220;28;20050;-73
2022/01/28 09:24:36;;;;;;;31.25;19.75;;;11.30;96.10;;;;;;5112682;28;20501;-73
2022/01/28 09:27:40;;;;;;;36.60;19.55;;;11.40;95.80;;;;;;5112681;28;20047;-73
2022/01/28 09:30:45;;;;;;;28.80;16.48;;;11.40;95.50;;;;;;5111963;28;20038;-73
2022/01/28 09:33:49;;;;;;;24.27;14.00;;;11.40;95.20;;;;;;5110787;28;20494;-73
2022/01/28 09:36:53;;;;;;;20.52;12.57;;;11.40;94.80;;;;;;5109075;28;20071;-73
2022/01/28 09:39:57;;;;;;;22.10;13.25;;;11.40;94.60;;;;;;5111156;28;20439;-73
2022/01/28 09:43:04;;;;;;;22.17;12.20;;;11.40;94.50;;;;;;5111401;28;20047;-73
2022/01/28 09:46:08;;;;;;;20.48;11.73;;;11.30;94.40;;;;;;5111154;28;20046;-73
2022/01/28 09:49:12;;;;;;;21.02;12.25;;;11.40;94.30;;;;;;5112077;28;20047;-73
2022/01/28 09:52:17;;;;;;;18.23;12.07;;;11.40;94.00;;;;;;5112192;28;20038;-73
2022/01/28 09:55:23;;;;;;;16.83;11.73;;;11.40;94.00;;;;;;5112070;28;20050;-73
2022/01/28 09:58:27;;;;;;;22.05;12.25;;;11.40;93.90;;;;;;5112103;28;20395;-73
2022/01/28 10:01:30;;;;;;;25.15;13.60;;;11.40;93.90;;;;;;5112039;28;20046;-73
2022/01/28 10:04:35;;;;;;;21.88;12.25;;;11.50;93.80;;;;;;5111978;28;20497;-73
2022/01/28 10:08:05;;;;;;;15.95;11.60;;;11.50;93.80;;;;;;5111912;28;20045;-73
2022/01/28 10:11:14;;;;;;;17.08;10.65;;;11.50;93.60;;;;;;5111380;28;20391;-72
2022/01/28 10:14:21;;;;;;;23.13;11.93;;;11.50;93.50;;;;;;5111959;28;20051;-73
2022/01/28 10:17:46;;;;;;;21.08;11.57;;;11.50;93.40;;;;;;5111782;28;20042;-73
2022/01/28 10:20:50;;;;;;;15.85;11.32;;;11.50;93.40;;;;;;5111915;28;20096;-73
2022/01/28 10:24:03;;;;;;;17.13;11.82;;;11.50;93.40;;;;;;5111580;28;20402;-73
2022/01/28 10:27:09;;;;;;;18.08;12.52;;;11.50;93.40;;;;;;5111680;28;20050;-73
2022/01/28 10:30:20;;;;;;;19.25;12.73;;;11.60;93.40;;;;;;5110963;28;20051;-73
2022/01/28 10:33:24;;;;;;;23.92;13.75;;;11.60;93.40;;;;;;5111270;28;20047;-73
2022/01/28 10:36:28;;;;;;;25.30;13.40;;;11.60;93.40;;;;;;5111780;28;20494;-73
2022/01/28 10:39:42;;;;;;;19.70;13.35;;;11.60;93.50;;;;;;5111513;28;20051;-73
2022/01/28 10:42:53;;;;;;;19.52;13.27;;;11.70;93.50;;;;;;5111347;28;20070;-73
2022/01/28 10:46:05;;;;;;;16.02;10.32;;;11.70;93.30;;;;;;5111443;28;20244;-73
2022/01/28 10:49:09;;;;;;;;;;;11.70;93.10;;;;;;5111721;28;20055;-73
2022/01/28 10:52:13;;;;;;;16.52;10.80;;;11.70;92.90;;;;;;5111338;28;19915;-74
2022/01/28 10:55:18;;;;;;;15.95;11.27;;;11.80;92.70;;;;;;5111111;28;20078;-73
2022/01/28 10:58:26;;;;;;;12.40;8.75;;;11.90;92.70;;;;;;5110960;28;20047;-74
2022/01/28 11:01:30;;;;;;;12.98;9.00;;;11.90;92.80;;;;;;5110930;28;20532;-75
2022/01/28 11:04:34;;;;;;;14.60;8.93;;;11.90;92.80;;;;;;5111078;28;20051;-75
2022/01/28 11:07:38;;;;;;;13.38;8.30;;;12.00;92.80;;;;;;5110602;28;20047;-75
2022/01/28 11:10:43;;;;;;;14.48;9.13;;;12.00;92.70;;;;;;5110883;28;20046;-75
2022/01/28 11:13:47;;;;;;;16.55;8.63;;;12.10;92.70;;;;;;5110893;28;20054;-75
2022/01/28 11:16:52;;;;;;;12.80;8.32;;;12.10;92.50;;;;;;5110153;28;20038;-75
2022/01/28 11:19:59;;;;;;;15.25;8.90;;;12.10;92.40;;;;;;5111108;28;20066;-76
2022/01/28 11:23:31;;;;;;;15.52;8.88;;;12.10;92.30;;;;;;5115038;28;20038;-74
2022/01/28 11:26:57;;;;;;;13.48;9.18;;;12.20;92.50;;;;;;5114519;28;20062;-77
2022/01/28 11:30:28;;;;;;;14.23;10.23;;;12.20;92.50;;;;;;5115000;28;20063;-80
2022/01/28 11:33:58;;;;;;;15.93;11.82;;;12.20;92.70;;;;;;5114981;28;20046;-75
2022/01/28 11:37:02;;;;;;;17.70;12.07;;;12.20;92.90;;;;;;5114520;28;20043;-76
2022/01/28 11:40:15;;;;;;;21.92;10.60;;;12.20;93.10;;;;;;5115126;28;20047;-74
2022/01/28 11:43:22;;;;;;;18.63;10.27;;;12.20;93.10;;;;;;5114782;28;20051;-74
2022/01/28 11:46:30;;;;;;;12.82;7.88;;;12.20;93.10;;;;;;5114552;28;20046;-76
2022/01/28 11:49:53;;;;;;;15.68;8.75;;;12.20;93.00;;;;;;5114911;28;20063;-76
2022/01/28 11:52:58;;;;;;;18.50;10.05;;;12.20;93.00;;;;;;5113743;28;20047;-74
2022/01/28 11:56:03;;;;;;;14.93;9.80;;;12.20;92.90;;;;;;5114678;28;20063;-74
2022/01/28 11:59:11;;;;;;;11.82;8.32;;;12.20;92.70;;;;;;5114381;28;20047;-72
2022/01/28 12:02:17;;;;;;;21.73;8.80;;;12.20;92.70;;;;;;5114456;28;20438;-72
2022/01/28 12:05:29;;;;;;;12.38;8.63;;;12.30;92.70;;;;;;5114773;28;20043;-75
2022/01/28 12:08:34;;;;;;;12.70;8.68;;;12.30;92.60;;;;;;5114451;28;20050;-75
2022/01/28 12:11:42;;;;;;;15.30;7.80;;;12.30;92.50;;;;;;5114405;28;20046;-73
2022/01/28 12:14:50;;;;;;;14.00;8.27;;;12.30;92.30;;;;;;5113266;28;20054;-72
2022/01/28 12:18:11;;;;;;;13.50;7.40;;;12.30;92.30;;;;;;5114440;28;20046;-75
2022/01/28 12:21:18;;;;;;;10.60;7.72;;;12.40;92.30;;;;;;5114421;28;20043;-74
2022/01/28 12:24:25;;;;;;;14.30;7.88;;;12.30;92.30;;;;;;5114246;28;20046;-75
2022/01/28 12:27:36;;;;;;;10.35;7.82;;;12.40;92.40;;;;;;5114125;28;20158;-75
2022/01/28 12:30:43;;;;;;;9.45;7.57;;;12.40;92.10;;;;;;5113993;28;20039;-74
2022/01/28 12:33:57;;;;;;;15.07;8.00;;;12.40;92.00;;;;;;5113194;28;20046;-75
2022/01/28 12:37:03;;;;;;;17.20;10.15;;;12.50;92.00;;;;;;5113994;28;20126;-74
2022/01/28 12:40:23;;;;;;;13.82;9.80;;;12.60;91.90;;;;;;5114093;28;20043;-75
2022/01/28 12:43:27;;;;;;;17.20;9.88;;;12.70;91.90;;;;;;5113973;28;20047;-74
2022/01/28 12:46:33;;;;;;;13.23;8.63;;;12.80;91.90;;;;;;5113211;28;20474;-77
2022/01/28 12:49:41;;;;;;;13.93;8.85;;;12.80;91.80;;;;;;5113759;28;20046;-73
2022/01/28 12:52:46;;;;;;;12.52;8.82;;;12.90;91.70;;;;;;5113588;28;20043;-75
2022/01/28 12:55:50;;;;;;;13.02;9.30;;;13.00;91.00;;;;;;5113630;28;20055;-75
2022/01/28 12:58:54;;;;;;;11.57;8.75;;;13.00;90.80;;;;;;5113286;28;20093;-75
2022/01/28 13:01:58;;;;;;;11.25;8.60;;;13.00;90.80;;;;;;5113243;28;20051;-74
2022/01/28 13:08:27;;;;;;;10.40;7.63;;;13.00;90.70;;;;;;5112868;28;20058;-73
2022/01/28 13:11:31;;;;;;;12.63;8.38;;;12.90;90.60;;;;;;5112824;28;20070;-73
2022/01/28 13:14:36;;;;;;;14.40;8.00;;;12.90;90.20;;;;;;5113247;28;20498;-74
2022/01/28 13:17:51;;;;;;;12.57;7.15;;;12.90;90.30;;;;;;5112710;28;20055;-77
2022/01/28 13:20:55;;;;;;;12.48;8.25;;;13.00;90.50;;;;;;5113039;28;20109;-78
2022/01/28 13:24:19;;;;;;;13.18;8.25;;;13.00;90.30;;;;;;5112801;28;20524;-75
2022/01/28 13:27:39;;;;;;;10.50;7.38;;;13.00;90.30;;;;;;5112942;28;20118;-75
2022/01/28 13:30:54;;;;;;;12.20;7.30;;;13.00;90.10;;;;;;5112665;28;20031;-72
2022/01/28 13:34:04;;;;;;;10.13;6.68;;;13.10;89.80;;;;;;5112669;28;20043;-71
2022/01/28 13:37:09;;;;;;;19.45;6.50;;;13.10;89.50;;;;;;5112760;28;20489;-75
2022/01/28 13:40:34;;;;;;;38.78;8.07;;;13.10;88.90;;;;;;5112831;28;20399;-76
2022/01/28 13:43:40;;;;;;;14.05;7.63;;;13.10;88.40;;;;;;5112610;28;20113;-75
2022/01/28 13:46:55;;;;;;;19.77;7.53;;;13.20;87.60;;;;;;5112094;28;20047;-75
2022/01/28 13:50:00;;;;;;;10.80;7.00;;;13.20;87.30;;;;;;5112607;28;20497;-75
2022/01/28 13:56:42;;;;;;;9.07;6.22;;;13.10;87.60;;;;;;5112557;28;20058;-76
2022/01/28 13:59:47;;;;;;;10.35;6.18;;;13.10;87.60;;;;;;5112349;28;20038;-76
2022/01/28 14:02:50;;;;;;;10.63;6.63;;;13.10;87.80;;;;;;5112293;28;20042;-75
2022/01/28 14:05:59;;;;;;;10.57;6.20;;;13.00;88.20;;;;;;5111888;28;20047;-74
2022/01/28 14:09:09;;;;;;;14.50;6.07;;;13.00;88.50;;;;;;5112212;28;20042;-71
2022/01/28 14:12:44;;;;;;;8.38;5.85;;;13.00;88.80;;;;;;5111738;28;20035;-73
2022/01/28 14:16:11;;;;;;;12.30;6.45;;;13.00;89.40;;;;;;5111607;28;20121;-74
2022/01/28 14:19:16;;;;;;;22.70;8.07;;;13.00;89.70;;;;;;5111541;28;20043;-73
2022/01/28 14:22:20;;;;;;;20.63;8.50;;;12.90;89.70;;;;;;5111520;28;20043;-71
2022/01/28 14:25:24;;;;;;;12.15;7.60;;;12.90;89.80;;;;;;5111694;28;20050;-71
2022/01/28 14:28:48;;;;;;;11.18;6.70;;;12.90;89.80;;;;;;5111499;28;20387;-73
2022/01/28 14:31:54;;;;;;;17.58;7.43;;;12.90;89.00;;;;;;5111850;28;20051;-72
2022/01/28 14:34:58;;;;;;;11.60;6.30;;;12.80;89.30;;;;;;5111528;28;20054;-74
2022/01/28 14:38:03;;;;;;;10.18;6.35;;;12.80;89.00;;;;;;5111810;28;20486;-71
2022/01/28 14:41:09;;;;;;;12.85;5.38;;;12.80;88.90;;;;;;5111417;28;20057;-73
2022/01/28 14:44:13;;;;;;;12.48;4.85;;;12.90;88.10;;;;;;5111545;28;20549;-73
2022/01/28 14:47:17;;;;;;;15.32;5.15;;;12.90;87.80;;;;;;5111055;28;20074;-73
2022/01/28 14:50:21;;;;;;;7.47;4.43;;;12.90;86.70;;;;;;5111316;28;20042;-73
2022/01/28 14:53:25;;;;;;;19.33;4.45;;;12.90;86.50;;;;;;5111240;28;20510;-73
2022/01/28 14:56:30;;;;;;;8.90;3.83;;;12.80;86.20;;;;;;5110468;28;20058;-74
2022/01/28 14:59:35;;;;;;;10.20;3.97;;;12.80;86.40;;;;;;5111238;28;20051;-72
2022/01/28 15:02:39;;;;;;;7.35;4.82;;;12.80;86.60;;;;;;5111481;28;20050;-73
2022/01/28 15:05:44;;;;;;;8.85;5.30;;;12.80;86.70;;;;;;5110318;28;20042;-75
2022/01/28 15:08:49;;;;;;;9.32;5.07;;;12.70;86.80;;;;;;5110928;28;20529;-76
2022/01/28 15:11:54;;;;;;;6.50;4.68;;;12.70;86.90;;;;;;5109981;28;20062;-78
2022/01/28 15:14:58;;;;;;;8.18;5.22;;;12.70;86.30;;;;;;5110650;28;20058;-76
2022/01/28 15:18:02;;;;;;;8.23;5.07;;;12.70;86.50;;;;;;5110784;28;20043;-76
2022/01/28 15:21:06;;;;;;;10.80;6.07;;;12.70;86.40;;;;;;5110953;28;20076;-75
2022/01/28 15:24:12;;;;;;;10.88;6.38;;;12.70;86.70;;;;;;5111289;28;20501;-75
2022/01/28 15:27:16;;;;;;;9.13;5.18;;;12.70;87.20;;;;;;5110840;28;20038;-75
2022/01/28 15:36:50;;;;;;;13.48;4.78;;;12.60;89.60;;;;;;5110537;28;20043;-75
2022/01/28 15:39:55;;;;;;;8.63;4.63;;;12.60;88.90;;;;;;5110973;28;20039;-75
2022/01/28 15:43:00;;;;;;;6.05;4.15;;;12.60;88.70;;;;;;5110832;28;20039;-75
2022/01/28 15:46:05;;;;;;;13.70;6.75;;;12.60;88.50;;;;;;5109835;28;20038;-75
2022/01/28 15:49:10;;;;;;;11.27;6.70;;;12.60;89.00;;;;;;5109703;28;20047;-75
2022/01/28 15:52:14;;;;;;;16.10;7.05;;;12.50;89.40;;;;;;5110923;28;20050;-75
2022/01/28 15:55:19;;;;;;;13.98;9.20;;;12.50;89.20;;;;;;5110386;28;20051;-75
2022/01/28 15:58:23;;;;;;;23.27;12.90;;;12.50;89.20;;;;;;5110596;28;20130;-74
2022/01/28 16:01:28;;;;;;;22.02;14.13;;;12.50;89.40;;;;;;5110461;28;20058;-79
2022/01/28 16:04:32;;;;;;;26.35;17.33;;;12.40;89.50;;;;;;5110461;28;20050;-77
2022/01/28 16:07:36;;;;;;;23.45;15.43;;;12.40;89.90;;;;;;5111270;28;20047;-82
2022/01/28 16:10:50;;;;;;;24.02;14.50;;;12.40;90.10;;;;;;5112806;28;20046;-75
2022/01/28 16:14:00;;;;;;;18.30;10.85;;;12.30;90.30;;;;;;5113657;28;20399;-75
2022/01/28 16:17:24;;;;;;;18.63;9.93;;;12.20;90.30;;;;;;5113768;28;20050;-75
2022/01/28 16:20:28;;;;;;;31.65;10.55;;;12.10;90.30;;;;;;5113402;28;20042;-75
2022/01/28 16:23:33;;;;;;;21.83;10.05;;;12.10;90.60;;;;;;5113830;28;20054;-75
2022/01/28 16:26:37;;;;;;;43.42;12.73;;;12.10;90.90;;;;;;5114009;28;20057;-74
2022/01/28 16:29:42;;;;;;;31.42;13.48;;;12.00;91.00;;;;;;5113893;28;20525;-75
2022/01/28 16:32:46;;;;;;;33.47;14.02;;;11.90;91.20;;;;;;5113557;28;20047;-75
2022/01/28 16:35:51;;;;;;;43.03;16.30;;;11.80;91.50;;;;;;5113218;28;20046;-75
2022/01/28 16:38:55;;;;;;;34.53;18.27;;;11.70;91.80;;;;;;5113283;28;20055;-75
2022/01/28 16:42:02;;;;;;;38.35;21.05;;;11.70;91.90;;;;;;5113680;28;20387;-75
2022/01/28 16:45:08;;;;;;;42.05;17.15;;;11.60;92.20;;;;;;5113838;28;20058;-75
2022/01/28 16:48:13;;;;;;;44.72;21.23;;;11.60;92.30;;;;;;5111801;28;20577;-75
2022/01/28 16:51:17;;;;;;;46.20;22.85;;;11.50;92.50;;;;;;5112107;28;20062;-73
2022/01/28 16:54:20;;;;;;;46.35;21.33;;;11.40;92.80;;;;;;5112430;28;20054;-73
2022/01/28 16:57:24;;;;;;;40.08;16.63;;;11.30;93.00;;;;;;5111916;28;20042;-73
2022/01/28 17:00:29;;;;;;;50.20;15.45;;;11.30;92.90;;;;;;5112890;28;20051;-73
2022/01/28 17:03:33;;;;;;;34.75;16.63;;;11.20;92.90;;;;;;5112868;28;20046;-73
2022/01/28 17:06:37;;;;;;;37.78;16.13;;;11.10;93.00;;;;;;5112851;28;20039;-73
2022/01/28 17:10:00;;;;;;;54.08;24.92;;;11.00;93.20;;;;;;5113086;28;20165;-73
2022/01/28 17:13:06;;;;;;;52.72;25.13;;;10.90;93.70;;;;;;5112289;28;20043;-73
2022/01/28 17:16:11;;;;;;;59.42;29.67;;;10.90;94.00;;;;;;5112573;28;20046;-74
2022/01/28 17:19:15;;;;;;;66.35;27.13;;;10.90;94.10;;;;;;5111863;28;20042;-74
2022/01/28 17:22:19;;;;;;;57.35;22.10;;;10.90;94.10;;;;;;5113045;28;20395;-71